ADDS METAR Data INFO
IDs: Format: Raw Decoded Include TAF

Data at: 0801 UTC 23 Jul 2018

KDEH 230755Z AUTO 33003KT 10SM CLR 18/18 A3000 RMK AO2
KDEH 230735Z AUTO 33004KT 10SM CLR 18/18 A3001 RMK AO2
KDEH 230715Z AUTO 32004KT 10SM CLR 18/18 A3002 RMK AO2
KDEH 230655Z AUTO 31004KT 10SM CLR 19/18 A3002 RMK AO2
KDEH 230635Z AUTO 34004KT 10SM FEW042 19/18 A3001 RMK AO2
KDEH 230615Z AUTO 36004KT 10SM CLR 20/19 A3002 RMK AO2
KDEH 230555Z AUTO 00000KT 10SM CLR 19/19 A3003 RMK AO2
KDEH 230535Z AUTO VRB03KT 10SM CLR 19/19 A3003 RMK AO2
KDEH 230515Z AUTO 32004KT 10SM FEW035 19/19 A3004 RMK AO2
KDEH 230455Z AUTO 30003KT 10SM CLR 19/19 A3004 RMK AO2
KDEH 230435Z AUTO 00000KT 10SM CLR 19/19 A3004 RMK AO2
KDEH 230415Z AUTO 00000KT 10SM CLR 20/19 A3003 RMK AO2
KDEH 230355Z AUTO 34004KT 10SM CLR 20/19 A3003 RMK AO2
KDEH 230335Z AUTO 00000KT 10SM CLR 20/20 A3003 RMK AO2
KDEH 230315Z AUTO 00000KT 10SM CLR 20/20 A3002 RMK AO2
KDEH 230255Z AUTO 00000KT 10SM CLR 21/20 A3002 RMK AO2
KDEH 230235Z AUTO 00000KT 10SM CLR 21/20 A3002 RMK AO2
KDEH 230215Z AUTO 00000KT 10SM CLR 21/20 A3001 RMK AO2
KDEH 230155Z AUTO 00000KT 10SM CLR 22/20 A3001 RMK AO2
KDEH 230135Z AUTO 00000KT 10SM FEW030 FEW040 22/20 A3001 RMK AO2
KDEH 230115Z AUTO 00000KT 10SM CLR 23/20 A3001 RMK AO2
KDEH 230055Z AUTO 00000KT 10SM CLR 23/20 A3001 RMK AO2
KDEH 230035Z AUTO 36003KT 10SM CLR 24/20 A3001 RMK AO2
KDEH 230015Z AUTO 00000KT 10SM CLR 24/20 A3001 RMK AO2
KDEH 222355Z AUTO 00000KT 10SM BKN070 23/19 A3001 RMK AO2
KDEH 222335Z AUTO 34005KT 10SM OVC065 24/19 A3001 RMK AO2
KDEH 222315Z AUTO 35004KT 10SM OVC065 24/19 A3001 RMK AO2
KDEH 222255Z AUTO 01005KT 10SM OVC060 24/19 A3001 RMK AO2
KDEH 222235Z AUTO 36005KT 10SM OVC060 24/19 A3001 RMK AO2
KDEH 222215Z AUTO VRB03KT 10SM OVC055 24/19 A3001 RMK AO2
KDEH 222155Z AUTO 03005KT 10SM BKN050 OVC055 24/18 A3001 RMK AO2
KDEH 222135Z AUTO 36006KT 10SM OVC049 24/19 A3001 RMK AO2
KDEH 222115Z AUTO 03005KT 10SM OVC047 24/19 A3001 RMK AO2
KDEH 222055Z AUTO 03005KT 10SM SCT030 SCT034 OVC046 23/19 A3001 RMK AO2
KDEH 222035Z AUTO 01004KT 10SM BKN031 OVC041 23/19 A3001 RMK AO2
KDEH 222015Z AUTO 04004KT 10SM BKN035 OVC041 23/19 A3001 RMK AO2
KDEH 221955Z AUTO 35006KT 10SM FEW028 OVC036 23/18 A3001 RMK AO2
KDEH 221935Z AUTO 01005KT 10SM SCT026 OVC037 23/18 A3001 RMK AO2
KDEH 221915Z AUTO 32007KT 10SM FEW027 OVC037 24/19 A3001 RMK AO2
KDEH 221855Z AUTO 02008G13KT 10SM FEW022 BKN027 OVC032 23/18 A3001 RMK AO2
KDEH 221835Z AUTO 00000G10KT 10SM BKN021 BKN029 OVC034 22/18 A3001 RMK AO2
KDEH 221815Z AUTO VRB06G13KT 10SM SCT021 BKN026 BKN031 22/18 A3001 RMK AO2
KDEH 221755Z AUTO 02008G13KT 10SM BKN025 OVC032 23/18 A3001 RMK AO2
KDEH 221735Z AUTO VRB05KT 10SM BKN023 OVC028 22/18 A3001 RMK AO2
KDEH 221715Z AUTO 04006KT 10SM BKN023 BKN028 22/17 A3001 RMK AO2
KDEH 221655Z AUTO 34008KT 10SM BKN020 BKN026 22/18 A3001 RMK AO2
KDEH 221635Z AUTO 02009G14KT 10SM BKN019 21/17 A3001 RMK AO2
KDEH 221615Z AUTO 02009KT 10SM OVC016 20/17 A3001 RMK AO2
KDEH 221555Z AUTO 02008KT 10SM OVC015 20/17 A3001 RMK AO2
KDEH 221535Z AUTO 01009KT 10SM OVC014 19/17 A3001 RMK AO2
KDEH 221515Z AUTO 01009G15KT 10SM OVC014 19/17 A3002 RMK AO2
KDEH 221455Z AUTO 02009KT 10SM OVC013 18/16 A3002 RMK AO2
KDEH 221435Z AUTO 01008G14KT 10SM OVC013 18/16 A3002 RMK AO2
KDEH 221415Z AUTO 02009KT 10SM OVC013 18/16 A3003 RMK AO2
KDEH 221355Z AUTO 36009KT 10SM OVC013 18/16 A3003 RMK AO2
KDEH 221335Z AUTO 01010KT 10SM OVC013 18/16 A3003 RMK AO2
KDEH 221315Z AUTO VRB06G15KT 10SM OVC012 18/16 A3003 RMK AO2
KDEH 221255Z AUTO 03007G16KT 10SM OVC010 17/16 A3004 RMK AO2
KDEH 221235Z AUTO 03009G17KT 360V060 10SM OVC010 17/16 A3004 RMK AO2
KDEH 221215Z AUTO 01006G14KT 10SM OVC011 17/16 A3003 RMK AO2
KDEH 221155Z AUTO 02009KT 10SM BKN012 OVC018 17/16 A3003 RMK AO2
KDEH 221135Z AUTO 36007KT 10SM BKN013 OVC018 17/16 A3003 RMK AO2
KDEH 221115Z AUTO 01011KT 10SM OVC011 17/16 A3003 RMK AO2
KDEH 221055Z AUTO 02008KT 10SM OVC011 18/16 A3002 RMK AO2
KDEH 221035Z AUTO 01008G15KT 10SM OVC011 18/16 A3002 RMK AO2
KDEH 221015Z AUTO 01008G17KT 350V050 10SM OVC011 17/16 A3001 RMK AO2
KDEH 220955Z AUTO 01010KT 10SM OVC011 18/16 A3000 RMK AO2
KDEH 220935Z AUTO 02011KT 10SM OVC011 18/17 A2999 RMK AO2
KDEH 220915Z AUTO 01008G16KT 10SM OVC013 18/17 A3000 RMK AO2
KDEH 220855Z AUTO 01009KT 10SM OVC015 17/17 A3000 RMK AO2
KDEH 220835Z AUTO 01009KT 10SM BKN015 OVC060 17/17 A3000 RMK AO2
KDEH 220815Z AUTO 01007G15KT 10SM OVC060 17/17 A2999 RMK AO2
KDEH 220755Z AUTO 01009KT 10SM OVC055 17/17 A2999 RMK AO2
KDEH 220735Z AUTO 35008KT 10SM FEW026 OVC055 17/17 A3000 RMK AO2
KDEH 220715Z AUTO 35008KT 10SM FEW027 OVC055 18/17 A3001 RMK AO2
KDEH 220655Z AUTO 34007KT 10SM SCT050 OVC060 18/17 A3001 RMK AO2
KDEH 220635Z AUTO 35007KT 10SM OVC050 18/17 A3001 RMK AO2
KDEH 220615Z AUTO 35006KT 10SM FEW030 OVC046 18/17 A3000 RMK AO2
KDEH 220555Z AUTO 36006KT 10SM BKN044 OVC049 18/17 A3000 RMK AO2
KDEH 220535Z AUTO 36006KT 10SM FEW034 OVC043 19/17 A3001 RMK AO2
KDEH 220515Z AUTO VRB06KT 10SM FEW029 BKN034 OVC049 19/17 A3001 RMK AO2
KDEH 220455Z AUTO 36006KT 10SM FEW029 FEW034 BKN041 19/17 A3001 RMK AO2
KDEH 220435Z AUTO 03006KT 10SM FEW034 FEW090 20/17 A3000 RMK AO2
KDEH 220415Z AUTO VRB06KT 10SM FEW031 SCT090 20/17 A3001 RMK AO2
KDEH 220355Z AUTO 01007G12KT 10SM BKN030 20/17 A3001 RMK AO2
KDEH 220335Z AUTO 36009KT 10SM OVC030 20/17 A3001 RMK AO2
KDEH 220315Z AUTO 01010KT 10SM OVC030 21/17 A3000 RMK AO2
KDEH 220255Z AUTO 35005KT 10SM OVC029 20/17 A3000 RMK AO2
KDEH 220235Z AUTO 36006KT 10SM BKN029 OVC050 21/17 A2999 RMK AO2
KDEH 220215Z AUTO 01006KT 10SM BKN050 21/17 A2999 RMK AO2
KDEH 220155Z AUTO 01006KT 10SM CLR 21/17 A2998 RMK AO2
KDEH 220135Z AUTO 02007G12KT 10SM CLR 22/17 A2998 RMK AO2
KDEH 220115Z AUTO 02009G16KT 10SM CLR 23/17 A2998 RMK AO2
KDEH 220055Z AUTO 01009G14KT 340V050 10SM CLR 23/17 A2997 RMK AO2
KDEH 220035Z AUTO 01010G16KT 320V020 10SM FEW070 23/17 A2996 RMK AO2
KDEH 220015Z AUTO 36008G16KT SCT044 BKN070 23/18 A2996 RMK AO2
KDEH 212355Z AUTO 01007G14KT 340V040 10SM FEW035 BKN044 OVC075 24/18 A2996 RMK AO2
KDEH 212335Z AUTO 36013G18KT 10SM FEW045 BKN075 25/18 A2995 RMK AO2
KDEH 212315Z AUTO 35012G19KT 10SM FEW037 FEW045 BKN070 25/18 A2995 RMK AO2
KDEH 212255Z AUTO 36012G17KT 10SM FEW037 FEW065 FEW080 25/18 A2995 RMK AO2
KDEH 212235Z AUTO 35009G17KT 10SM FEW037 SCT070 SCT080 25/18 A2995 RMK AO2
KDEH 212215Z AUTO 34012KT 10SM FEW038 FEW049 FEW065 25/19 A2995 RMK AO2
KDEH 212155Z AUTO 34009G15KT 10SM FEW050 BKN065 25/19 A2995 RMK AO2
KDEH 212135Z AUTO 34010G17KT 10SM FEW037 SCT044 BKN065 26/19 A2995 RMK AO2
KDEH 212115Z AUTO 36008G13KT 320V020 10SM SCT037 BKN047 BKN060 25/19 A2995 RMK AO2
KDEH 212055Z AUTO 34011KT 300V360 10SM SCT038 BKN045 BKN055 25/18 A2995 RMK AO2
KDEH 212035Z AUTO 34011G17KT 10SM FEW038 SCT046 SCT050 25/18 A2995 RMK AO2
KDEH 212015Z AUTO 35011KT 10SM FEW037 BKN045 26/19 A2995 RMK AO2